createdAt,value
2018-07-22T00:01:18.310Z,17.90
2018-07-22T00:03:46.358Z,17.80
2018-07-22T00:06:14.453Z,17.80
2018-07-22T00:08:41.830Z,17.80
2018-07-22T00:13:37.046Z,17.80
2018-07-22T00:16:05.594Z,17.90
2018-07-22T00:18:33.637Z,17.80
2018-07-22T00:21:01.703Z,17.80
2018-07-22T00:23:29.780Z,17.80
2018-07-22T00:28:25.638Z,17.80
2018-07-22T00:30:53.686Z,17.80
2018-07-22T00:33:21.070Z,17.80
2018-07-22T00:38:15.629Z,17.80
2018-07-22T00:40:43.019Z,17.80
2018-07-22T00:43:11.049Z,17.70
2018-07-22T00:45:39.105Z,17.60
2018-07-22T00:48:07.157Z,17.60
2018-07-22T00:50:35.206Z,17.60
2018-07-22T00:55:31.089Z,17.60
2018-07-22T00:57:59.138Z,17.60
2018-07-22T01:00:27.190Z,17.60
2018-07-22T01:02:55.249Z,17.60
2018-07-22T01:05:23.298Z,17.60
2018-07-22T01:07:51.373Z,17.60
2018-07-22T01:10:19.434Z,17.50
2018-07-22T01:12:47.483Z,17.50
2018-07-22T01:15:15.525Z,17.50
2018-07-22T01:17:43.586Z,17.50
2018-07-22T01:20:11.642Z,17.50
2018-07-22T01:22:39.710Z,17.50
2018-07-22T01:25:07.955Z,17.60
2018-07-22T01:27:36.002Z,17.60
2018-07-22T01:30:05.738Z,17.60
2018-07-22T01:35:01.619Z,17.50
2018-07-22T01:37:29.662Z,17.50
2018-07-22T01:39:57.702Z,17.50
2018-07-22T01:42:25.762Z,17.50
2018-07-22T01:44:53.820Z,17.50
2018-07-22T01:47:21.854Z,17.50
2018-07-22T01:49:49.910Z,17.50
2018-07-22T01:52:17.969Z,17.60
2018-07-22T01:54:46.023Z,17.60
2018-07-22T01:57:14.079Z,17.50
2018-07-22T01:59:42.126Z,17.50
2018-07-22T02:02:10.285Z,17.50
2018-07-22T02:04:38.338Z,17.50
2018-07-22T02:07:06.388Z,17.50
2018-07-22T02:09:34.434Z,17.50
2018-07-22T02:12:02.475Z,17.50
2018-07-22T02:14:30.528Z,17.50
2018-07-22T02:16:58.578Z,17.50
2018-07-22T02:19:26.634Z,17.50
2018-07-22T02:21:54.678Z,17.50
2018-07-22T02:24:22.729Z,17.50
2018-07-22T02:26:50.785Z,17.50
2018-07-22T02:29:18.829Z,17.60
2018-07-22T02:31:46.874Z,17.60
2018-07-22T02:34:14.917Z,17.60
2018-07-22T02:36:42.954Z,17.60
2018-07-22T02:39:12.515Z,17.70
2018-07-22T02:41:40.615Z,17.60
2018-07-22T02:44:08.943Z,17.60
2018-07-22T02:46:37.182Z,17.60
2018-07-22T02:49:05.653Z,17.60
2018-07-22T02:51:33.847Z,17.70
2018-07-22T02:54:01.855Z,17.60
2018-07-22T02:56:29.900Z,17.60
2018-07-22T02:58:57.942Z,17.60
2018-07-22T03:01:25.977Z,17.50
2018-07-22T03:03:54.030Z,17.50
2018-07-22T03:06:22.094Z,17.50
2018-07-22T03:08:50.158Z,17.50
2018-07-22T03:11:18.215Z,17.40
2018-07-22T03:13:46.259Z,17.40
2018-07-22T03:16:14.314Z,17.40
2018-07-22T03:18:42.388Z,17.40
2018-07-22T03:21:10.435Z,17.40
2018-07-22T03:23:38.487Z,17.40
2018-07-22T03:26:06.537Z,17.40
2018-07-22T03:28:34.626Z,17.40
2018-07-22T03:31:02.730Z,17.40
2018-07-22T03:33:30.768Z,17.40
2018-07-22T03:35:58.814Z,17.40
2018-07-22T03:38:26.855Z,17.40
2018-07-22T03:40:55.022Z,17.40
2018-07-22T03:43:23.079Z,17.50
2018-07-22T03:45:51.123Z,17.50
2018-07-22T03:48:19.194Z,17.50
2018-07-22T03:50:47.234Z,17.50
2018-07-22T03:53:15.270Z,17.60
2018-07-22T03:55:43.331Z,17.70
2018-07-22T03:58:11.357Z,17.60
2018-07-22T04:03:07.415Z,17.60
2018-07-22T04:05:35.473Z,17.60
2018-07-22T04:08:03.518Z,17.60
2018-07-22T04:10:31.710Z,17.60
2018-07-22T04:12:59.750Z,17.60
2018-07-22T04:15:27.796Z,17.60
2018-07-22T04:17:55.842Z,17.60
2018-07-22T04:20:23.902Z,17.60
2018-07-22T04:22:51.942Z,17.70
2018-07-22T04:25:19.986Z,17.70
2018-07-22T04:27:48.031Z,17.60
2018-07-22T04:32:43.905Z,17.60
2018-07-22T04:35:11.946Z,17.60
2018-07-22T04:37:39.992Z,17.60
2018-07-22T04:40:07.393Z,17.60
2018-07-22T04:42:34.785Z,17.60
2018-07-22T04:45:02.830Z,17.70
2018-07-22T04:47:30.201Z,17.70
2018-07-22T04:49:57.581Z,17.70
2018-07-22T04:52:25.618Z,17.70
2018-07-22T04:59:49.370Z,17.70
2018-07-22T05:02:17.402Z,17.70
2018-07-22T05:04:45.450Z,17.70
2018-07-22T05:07:12.844Z,17.70
2018-07-22T05:09:40.225Z,17.70
2018-07-22T05:12:08.550Z,17.80
2018-07-22T05:14:36.590Z,17.80
2018-07-22T05:22:00.356Z,17.90
2018-07-22T05:24:28.370Z,18.00
2018-07-22T05:26:56.406Z,18.00
2018-07-22T05:29:24.486Z,18.00
2018-07-22T05:31:52.538Z,18.10
2018-07-22T05:34:20.582Z,18.20
2018-07-22T05:36:48.634Z,18.20
2018-07-22T05:39:16.686Z,18.30
2018-07-22T05:41:44.721Z,18.40
2018-07-22T05:44:12.766Z,18.40
2018-07-22T05:46:40.822Z,18.50
2018-07-22T05:49:08.873Z,18.50
2018-07-22T05:51:36.918Z,18.40
2018-07-22T05:56:32.842Z,18.60
2018-07-22T05:59:00.877Z,18.60
2018-07-22T06:03:56.749Z,18.60
2018-07-22T06:06:24.799Z,18.70
2018-07-22T06:08:52.848Z,18.60
2018-07-22T06:11:20.884Z,18.70
2018-07-22T06:13:48.920Z,18.70
2018-07-22T06:16:16.970Z,18.60
2018-07-22T06:21:11.501Z,18.60
2018-07-22T06:23:39.566Z,18.50
2018-07-22T06:26:07.614Z,18.40
2018-07-22T06:28:35.655Z,18.50
2018-07-22T06:31:03.727Z,18.50
2018-07-22T06:33:31.772Z,18.40
2018-07-22T06:35:59.933Z,18.40
2018-07-22T06:38:27.974Z,18.50
2018-07-22T06:40:56.018Z,18.60
2018-07-22T06:43:24.061Z,18.60
2018-07-22T06:45:52.093Z,18.60
2018-07-22T06:48:20.140Z,18.70
2018-07-22T06:50:48.194Z,18.70
2018-07-22T06:53:16.247Z,18.80
2018-07-22T06:55:44.286Z,18.90
2018-07-22T06:58:12.353Z,18.90
2018-07-22T07:00:40.398Z,19.10
2018-07-22T07:03:08.474Z,19.30
2018-07-22T07:05:36.540Z,19.30
2018-07-22T07:08:04.762Z,19.20
2018-07-22T07:10:32.838Z,19.40
2018-07-22T07:13:00.895Z,19.50
2018-07-22T07:15:28.977Z,19.50
2018-07-22T07:22:52.741Z,19.70
2018-07-22T07:27:48.625Z,19.80
2018-07-22T07:30:16.687Z,19.70
2018-07-22T07:32:44.726Z,19.80
2018-07-22T07:35:12.790Z,19.90
2018-07-22T07:37:40.890Z,20.00
2018-07-22T07:40:08.986Z,19.90
2018-07-22T07:42:37.037Z,19.80
2018-07-22T07:45:05.263Z,19.90
2018-07-22T07:47:33.342Z,19.90
2018-07-22T07:50:03.618Z,20.00
2018-07-22T07:54:59.630Z,20.00
2018-07-22T07:57:27.029Z,20.00
2018-07-22T07:59:55.590Z,19.80
2018-07-22T08:02:25.193Z,19.90
2018-07-22T08:04:53.328Z,20.00
2018-07-22T08:07:21.727Z,20.10
2018-07-22T08:09:49.773Z,20.20
2018-07-22T08:12:17.821Z,20.20
2018-07-22T08:14:45.214Z,20.20
2018-07-22T08:17:12.637Z,20.20
2018-07-22T08:19:40.799Z,20.20
2018-07-22T08:22:08.889Z,20.20
2018-07-22T08:24:36.933Z,20.20
2018-07-22T08:27:04.994Z,20.30
2018-07-22T08:29:33.404Z,20.20
2018-07-22T08:32:02.150Z,20.20
2018-07-22T08:34:30.366Z,20.30
2018-07-22T08:36:58.589Z,20.40
2018-07-22T08:39:27.761Z,20.40
2018-07-22T08:41:56.233Z,20.50
2018-07-22T08:44:24.306Z,20.60
2018-07-22T08:46:52.389Z,20.90
2018-07-22T08:49:20.474Z,21.10
2018-07-22T08:51:48.537Z,21.10
2018-07-22T08:54:16.598Z,21.10
2018-07-22T08:56:44.674Z,21.20
2018-07-22T08:59:12.727Z,21.20
2018-07-22T09:01:40.802Z,20.90
2018-07-22T09:04:08.196Z,20.90
2018-07-22T09:06:36.266Z,20.80
2018-07-22T09:09:08.292Z,21.10
2018-07-22T09:11:36.438Z,21.30
2018-07-22T09:14:05.015Z,21.40
2018-07-22T09:16:33.130Z,21.40
2018-07-22T09:19:01.515Z,21.40
2018-07-22T09:23:56.810Z,21.40
2018-07-22T09:28:52.683Z,21.60
2018-07-22T09:31:20.738Z,21.70
2018-07-22T09:33:48.813Z,21.90
2018-07-22T09:36:17.014Z,22.00
2018-07-22T09:38:44.903Z,22.10
2018-07-22T09:41:12.965Z,22.20
2018-07-22T09:43:41.010Z,22.30
2018-07-22T09:46:09.054Z,22.20
2018-07-22T09:48:37.098Z,22.20
2018-07-22T09:51:05.141Z,22.40
2018-07-22T09:53:33.178Z,22.60
2018-07-22T10:00:57.879Z,22.70
2018-07-22T10:03:26.989Z,22.90
2018-07-22T10:05:55.050Z,22.70
2018-07-22T10:08:23.164Z,22.50
2018-07-22T10:10:51.217Z,22.70
2018-07-22T10:13:19.254Z,23.00
2018-07-22T10:18:14.662Z,23.10
2018-07-22T10:23:09.979Z,23.50
2018-07-22T10:25:38.011Z,23.50
2018-07-22T10:28:06.086Z,23.50
2018-07-22T10:30:33.490Z,23.60
2018-07-22T10:33:01.751Z,23.80
2018-07-22T10:35:29.882Z,23.80
2018-07-22T10:37:57.922Z,23.60
2018-07-22T10:40:25.966Z,23.40
2018-07-22T10:42:54.163Z,23.20
2018-07-22T10:45:22.311Z,23.10
2018-07-22T10:47:50.347Z,23.10
2018-07-22T10:50:18.426Z,23.20
2018-07-22T10:52:46.459Z,23.40
2018-07-22T10:55:14.495Z,23.60
2018-07-22T10:57:42.550Z,23.70
2018-07-22T11:00:10.598Z,23.60
2018-07-22T11:02:37.991Z,23.60
2018-07-22T11:05:07.062Z,23.70
2018-07-22T11:07:34.446Z,23.70
2018-07-22T11:12:28.996Z,23.90
2018-07-22T11:14:56.411Z,24.10
2018-07-22T11:17:24.465Z,24.00
2018-07-22T11:19:51.845Z,23.90
2018-07-22T11:22:19.237Z,23.80
2018-07-22T11:24:47.277Z,23.80
2018-07-22T11:27:15.362Z,23.60
2018-07-22T11:29:43.401Z,23.40
2018-07-22T11:32:11.430Z,23.20
2018-07-22T11:34:38.813Z,23.20
2018-07-22T11:37:06.861Z,23.30
2018-07-22T11:39:34.901Z,23.30
2018-07-22T11:42:02.304Z,23.20
2018-07-22T11:45:57.143Z,23.30
2018-07-22T11:48:25.222Z,23.30
2018-07-22T11:50:52.606Z,23.40
2018-07-22T11:53:20.648Z,23.50
2018-07-22T11:58:15.209Z,23.40
2018-07-22T12:00:47.025Z,23.60
2018-07-22T12:03:15.162Z,23.60
2018-07-22T12:05:43.202Z,23.60
2018-07-22T12:08:11.405Z,23.60
2018-07-22T12:10:38.795Z,23.60
2018-07-22T12:13:06.850Z,23.30
2018-07-22T12:15:34.891Z,23.10
2018-07-22T12:18:02.943Z,22.70
2018-07-22T12:22:59.062Z,19.50
2018-07-22T12:25:27.209Z,19.30
2018-07-22T12:27:55.303Z,19.20
2018-07-22T12:30:23.333Z,19.00
2018-07-22T12:32:51.382Z,19.20
2018-07-22T12:35:19.458Z,19.30
2018-07-22T12:37:47.869Z,19.60
2018-07-22T12:40:16.027Z,19.90
2018-07-22T12:42:44.038Z,20.10
2018-07-22T12:45:12.275Z,20.20
2018-07-22T12:47:40.339Z,20.30
2018-07-22T12:52:36.225Z,20.50
2018-07-22T12:55:04.281Z,20.60
2018-07-22T12:57:32.349Z,20.50
2018-07-22T13:00:00.406Z,20.40
2018-07-22T13:02:28.458Z,20.20
2018-07-22T13:04:56.506Z,20.10
2018-07-22T13:07:24.566Z,20.20
2018-07-22T13:09:52.627Z,20.10
2018-07-22T13:12:20.737Z,20.10
2018-07-22T13:14:48.798Z,20.00
2018-07-22T13:17:16.861Z,19.80
2018-07-22T13:19:44.940Z,19.30
2018-07-22T13:22:12.998Z,18.80
2018-07-22T13:24:41.067Z,18.50
2018-07-22T13:27:09.118Z,18.10
2018-07-22T13:29:37.163Z,17.90
2018-07-22T13:32:05.235Z,17.70
2018-07-22T13:34:33.344Z,17.50
2018-07-22T13:37:01.362Z,17.30
2018-07-22T13:41:57.270Z,17.20
2018-07-22T13:44:25.327Z,17.10
2018-07-22T13:46:53.382Z,17.20
2018-07-22T13:49:21.444Z,17.30
2018-07-22T13:51:49.510Z,17.40
2018-07-22T13:54:17.559Z,17.40
2018-07-22T13:56:45.611Z,17.40
2018-07-22T14:01:41.561Z,17.40
2018-07-22T14:04:09.619Z,17.40
2018-07-22T14:06:37.673Z,17.30
2018-07-22T14:09:07.802Z,17.20
2018-07-22T14:11:35.915Z,17.30
2018-07-22T14:14:03.974Z,17.40
2018-07-22T14:16:32.034Z,17.40
2018-07-22T14:19:00.070Z,17.50
2018-07-22T14:21:28.123Z,17.40
2018-07-22T14:23:56.170Z,17.40
2018-07-22T14:28:52.149Z,17.60
2018-07-22T14:31:20.251Z,17.60
2018-07-22T14:33:48.303Z,17.70
2018-07-22T14:41:12.078Z,17.70
2018-07-22T14:43:40.117Z,17.60
2018-07-22T14:46:08.171Z,17.60
2018-07-22T14:51:04.059Z,17.70
2018-07-22T14:53:32.129Z,17.70
2018-07-22T14:56:00.163Z,17.80
2018-07-22T14:58:28.194Z,17.90
2018-07-22T15:00:56.247Z,18.10
2018-07-22T15:03:24.317Z,17.90
2018-07-22T15:05:52.353Z,17.70
2018-07-22T15:08:20.425Z,17.80
2018-07-22T15:10:48.486Z,18.00
2018-07-22T15:13:16.622Z,18.10
2018-07-22T15:15:44.694Z,18.20
2018-07-22T15:18:12.831Z,18.20
2018-07-22T15:20:41.013Z,18.00
2018-07-22T15:23:09.277Z,17.90
2018-07-22T15:25:37.325Z,17.80
2018-07-22T15:28:05.374Z,17.90
2018-07-22T15:30:33.417Z,17.70
2018-07-22T15:33:01.470Z,17.70
2018-07-22T15:35:29.533Z,17.70
2018-07-22T15:37:57.587Z,17.80
2018-07-22T15:40:25.646Z,18.00
2018-07-22T15:42:53.689Z,18.00
2018-07-22T15:45:21.846Z,18.10
2018-07-22T15:47:49.882Z,18.10
2018-07-22T15:50:17.926Z,18.10
2018-07-22T15:55:13.920Z,18.00
2018-07-22T15:57:41.858Z,18.20
2018-07-22T16:00:10.414Z,18.10
2018-07-22T16:02:38.886Z,18.20
2018-07-22T16:05:06.926Z,18.30
2018-07-22T16:07:35.207Z,18.40
2018-07-22T16:10:03.331Z,18.50
2018-07-22T16:12:31.373Z,18.50
2018-07-22T16:14:59.430Z,18.70
2018-07-22T16:17:27.502Z,19.00
2018-07-22T16:19:55.681Z,18.90
2018-07-22T16:22:23.719Z,18.60
2018-07-22T16:24:51.770Z,18.50
2018-07-22T16:27:19.822Z,18.50
2018-07-22T16:29:47.881Z,18.40
2018-07-22T16:32:15.930Z,18.50
2018-07-22T16:34:43.985Z,18.60
2018-07-22T16:37:12.134Z,18.70
2018-07-22T16:39:40.193Z,18.60
2018-07-22T16:42:08.278Z,18.60
2018-07-22T16:44:36.298Z,18.50
2018-07-22T16:47:04.341Z,18.50
2018-07-22T16:52:00.226Z,18.50
2018-07-22T16:54:28.262Z,18.60
2018-07-22T16:56:56.347Z,18.50
2018-07-22T16:59:24.389Z,18.60
2018-07-22T17:01:52.658Z,18.60
2018-07-22T17:04:20.702Z,18.60
2018-07-22T17:06:48.745Z,18.60
2018-07-22T17:09:17.014Z,18.60
2018-07-22T17:11:45.069Z,18.60
2018-07-22T17:14:13.161Z,18.40
2018-07-22T17:16:41.210Z,18.50
2018-07-22T17:24:05.078Z,18.20
2018-07-22T17:26:33.118Z,18.20
2018-07-22T17:29:01.469Z,18.20
2018-07-22T17:31:29.513Z,18.20
2018-07-22T17:33:57.594Z,18.00
2018-07-22T17:36:25.651Z,18.10
2018-07-22T17:38:53.782Z,18.10
2018-07-22T17:41:21.815Z,18.00
2018-07-22T17:43:50.040Z,18.00
2018-07-22T17:46:18.070Z,18.00
2018-07-22T17:48:46.130Z,18.00
2018-07-22T17:51:14.182Z,18.00
2018-07-22T17:53:42.234Z,18.00
2018-07-22T17:56:10.302Z,18.10
2018-07-22T17:58:38.382Z,18.10
2018-07-22T18:01:06.418Z,18.00
2018-07-22T18:03:34.482Z,18.00
2018-07-22T18:08:30.415Z,18.10
2018-07-22T18:10:58.486Z,18.10
2018-07-22T18:13:26.615Z,18.10
2018-07-22T18:18:22.518Z,18.10
2018-07-22T18:20:50.609Z,18.10
2018-07-22T18:23:18.639Z,18.00
2018-07-22T18:28:15.445Z,18.00
2018-07-22T18:30:44.097Z,18.10
2018-07-22T18:33:12.154Z,18.10
2018-07-22T18:35:40.198Z,18.10
2018-07-22T18:38:08.242Z,18.10
2018-07-22T18:40:36.295Z,18.10
2018-07-22T18:43:04.345Z,18.00
2018-07-22T18:45:32.435Z,18.00
2018-07-22T18:48:00.434Z,17.90
2018-07-22T18:50:28.494Z,17.90
2018-07-22T18:52:56.579Z,18.00
2018-07-22T18:55:24.618Z,18.00
2018-07-22T18:57:52.667Z,17.90
2018-07-22T19:00:20.721Z,17.80
2018-07-22T19:02:48.761Z,17.90
2018-07-22T19:10:12.574Z,17.90
2018-07-22T19:12:40.621Z,17.80
2018-07-22T19:15:08.734Z,17.80
2018-07-22T19:17:36.802Z,17.90
2018-07-22T19:20:05.137Z,17.90
2018-07-22T19:22:33.267Z,17.80
2018-07-22T19:25:01.335Z,17.80
2018-07-22T19:27:29.425Z,17.70
2018-07-22T19:32:25.470Z,17.70
2018-07-22T19:34:53.566Z,17.70
2018-07-22T19:37:21.662Z,17.80
2018-07-22T19:39:49.734Z,17.80
2018-07-22T19:42:17.801Z,17.80
2018-07-22T19:44:47.634Z,17.80
2018-07-22T19:47:16.211Z,17.80
2018-07-22T19:49:45.080Z,17.80
2018-07-22T19:52:13.465Z,17.80
2018-07-22T19:54:42.278Z,17.80
2018-07-22T19:57:11.280Z,17.80
2018-07-22T19:59:40.350Z,17.80
2018-07-22T20:02:08.423Z,17.80
2018-07-22T20:04:36.467Z,17.80
2018-07-22T20:07:04.505Z,17.80
2018-07-22T20:09:32.682Z,17.80
2018-07-22T20:12:00.828Z,17.90
2018-07-22T20:14:28.891Z,17.90
2018-07-22T20:16:56.946Z,18.00
2018-07-22T20:19:24.987Z,17.90
2018-07-22T20:21:53.130Z,18.00
2018-07-22T20:24:21.221Z,18.00
2018-07-22T20:26:49.227Z,18.00
2018-07-22T20:29:17.278Z,18.00
2018-07-22T20:31:45.377Z,17.90
2018-07-22T20:34:13.378Z,17.90
2018-07-22T20:36:41.455Z,18.00
2018-07-22T20:41:38.239Z,17.90
2018-07-22T20:44:06.331Z,17.90
2018-07-22T20:46:34.390Z,17.80
2018-07-22T20:49:02.454Z,17.80
2018-07-22T20:51:30.489Z,17.80
2018-07-22T20:53:58.533Z,17.80
2018-07-22T20:56:26.689Z,17.70
2018-07-22T20:58:54.750Z,17.70
2018-07-22T21:01:22.825Z,17.70
2018-07-22T21:03:50.909Z,17.70
2018-07-22T21:06:18.940Z,17.60
2018-07-22T21:08:47.015Z,17.60
2018-07-22T21:11:15.382Z,17.60
2018-07-22T21:13:43.458Z,17.50
2018-07-22T21:16:11.506Z,17.50
2018-07-22T21:18:39.583Z,17.40
2018-07-22T21:21:07.642Z,17.40
2018-07-22T21:23:35.670Z,17.50
2018-07-22T21:26:03.756Z,17.50
2018-07-22T21:28:31.794Z,17.40
2018-07-22T21:30:59.847Z,17.50
2018-07-22T21:33:27.898Z,17.50
2018-07-22T21:35:55.970Z,17.50
2018-07-22T21:38:24.035Z,17.40
2018-07-22T21:40:52.091Z,17.40
2018-07-22T21:43:20.166Z,17.40
2018-07-22T21:45:48.218Z,17.40
2018-07-22T21:48:16.257Z,17.40
2018-07-22T21:50:44.333Z,17.40
2018-07-22T21:53:12.377Z,17.30
2018-07-22T21:55:40.445Z,17.40
2018-07-22T21:58:08.486Z,17.40
2018-07-22T22:00:42.097Z,17.50
2018-07-22T22:03:10.218Z,17.40
2018-07-22T22:05:38.281Z,17.40
2018-07-22T22:08:06.414Z,17.40
2018-07-22T22:10:34.453Z,17.40
2018-07-22T22:13:02.514Z,17.40
2018-07-22T22:15:31.638Z,17.30
2018-07-22T22:18:00.914Z,17.30
2018-07-22T22:20:29.393Z,17.30
2018-07-22T22:22:57.759Z,17.20
2018-07-22T22:25:25.818Z,17.20
2018-07-22T22:32:49.586Z,17.20
2018-07-22T22:35:17.677Z,17.20
2018-07-22T22:37:46.188Z,17.20
2018-07-22T22:40:15.063Z,17.10
2018-07-22T22:42:44.441Z,17.20
2018-07-22T22:45:12.814Z,17.20
2018-07-22T22:47:40.869Z,17.30
2018-07-22T22:50:08.905Z,17.20
2018-07-22T22:52:36.942Z,17.20
2018-07-22T22:55:04.989Z,17.20
2018-07-22T22:57:33.066Z,17.20
2018-07-22T23:00:01.101Z,17.10
2018-07-22T23:02:34.137Z,17.10
2018-07-22T23:05:02.178Z,17.10
2018-07-22T23:07:30.222Z,17.20
2018-07-22T23:09:58.273Z,17.20
2018-07-22T23:12:26.317Z,17.20
2018-07-22T23:14:54.370Z,17.20
2018-07-22T23:17:22.410Z,17.30
2018-07-22T23:19:50.455Z,17.20
2018-07-22T23:22:18.501Z,17.20
2018-07-22T23:27:14.386Z,17.20
2018-07-22T23:29:42.429Z,17.10
2018-07-22T23:32:10.703Z,17.10
2018-07-22T23:34:38.746Z,17.10
2018-07-22T23:37:06.793Z,17.00
2018-07-22T23:39:34.834Z,17.00
2018-07-22T23:42:02.895Z,17.10
2018-07-22T23:44:30.937Z,17.00
2018-07-22T23:46:58.977Z,17.10
2018-07-22T23:49:27.017Z,17.10
2018-07-22T23:54:22.914Z,17.20
2018-07-22T23:56:50.979Z,17.20
